createdAt,value
2023-05-05T00:02:01.604Z,99928.03
2023-05-05T00:05:03.389Z,99913.66
2023-05-05T00:08:05.019Z,99929.91
2023-05-05T00:11:06.695Z,99933.69
2023-05-05T00:14:08.350Z,99928.75
2023-05-05T00:17:10.030Z,99927.56
2023-05-05T00:20:12.397Z,99919.22
2023-05-05T00:23:17.179Z,99915.03
2023-05-05T00:26:18.825Z,99931.22
2023-05-05T00:29:24.549Z,99944.38
2023-05-05T00:32:26.233Z,99940.56
2023-05-05T00:35:27.881Z,99934.47
2023-05-05T00:38:29.556Z,99929.19
2023-05-05T00:41:31.186Z,99921.63
2023-05-05T00:44:41.755Z,99899.25
2023-05-05T00:47:54.061Z,99907.97
2023-05-05T00:50:55.723Z,99897.38
2023-05-05T00:53:57.590Z,99903.38
2023-05-05T00:56:59.333Z,99899.56
2023-05-05T01:00:00.987Z,99889.66
2023-05-05T01:03:02.734Z,99905.13
2023-05-05T01:06:29.097Z,99896.41
2023-05-05T01:09:45.666Z,99897.53
2023-05-05T01:13:05.404Z,99896.38
2023-05-05T01:16:10.891Z,99898.94
2023-05-05T01:19:45.653Z,99897.75
2023-05-05T01:22:47.562Z,99902.63
2023-05-05T01:26:08.671Z,99916.97
2023-05-05T01:29:19.339Z,99924.03
2023-05-05T01:32:22.942Z,99917.97
2023-05-05T01:35:29.645Z,99901.53
2023-05-05T01:38:42.303Z,99907.91
2023-05-05T01:41:49.183Z,99922.94
2023-05-05T01:44:50.889Z,99925.53
2023-05-05T01:47:52.712Z,99918.31
2023-05-05T01:50:54.844Z,99915.22
2023-05-05T01:53:58.904Z,99919.03
2023-05-05T01:57:00.550Z,99915.22
2023-05-05T02:00:02.259Z,99906.47
2023-05-05T02:03:16.271Z,99903.50
2023-05-05T02:06:19.522Z,99915.53
2023-05-05T02:09:21.101Z,99907.22
2023-05-05T02:12:25.866Z,99902.94
2023-05-05T02:15:27.561Z,99905.88
2023-05-05T02:18:29.221Z,99913.28
2023-05-05T02:21:30.927Z,99830.03
2023-05-05T02:24:34.459Z,99890.00
2023-05-05T02:27:36.150Z,99902.88
2023-05-05T02:30:37.795Z,99899.88
2023-05-05T02:33:39.669Z,99893.75
2023-05-05T02:36:41.437Z,99906.03
2023-05-05T02:39:47.112Z,99889.25
2023-05-05T02:42:53.057Z,99898.41
2023-05-05T02:45:56.501Z,99900.19
2023-05-05T02:48:58.271Z,99898.63
2023-05-05T02:52:00.912Z,99888.69
2023-05-05T02:55:07.418Z,99899.94
2023-05-05T02:58:28.176Z,99900.25
2023-05-05T03:01:59.427Z,99908.81
2023-05-05T03:05:11.165Z,99906.94
2023-05-05T03:08:18.378Z,99909.63
2023-05-05T03:11:29.423Z,99910.72
2023-05-05T03:14:36.298Z,99900.84
2023-05-05T03:17:39.715Z,99909.16
2023-05-05T03:20:44.941Z,99903.88
2023-05-05T03:23:48.998Z,99913.66
2023-05-05T03:26:54.927Z,99915.53
2023-05-05T03:29:59.931Z,99904.94
2023-05-05T03:33:02.325Z,99906.34
2023-05-05T03:36:04.216Z,99900.19
2023-05-05T03:39:05.955Z,99905.78
2023-05-05T03:42:08.953Z,99909.47
2023-05-05T03:45:11.176Z,99911.75
2023-05-05T03:48:13.890Z,99909.47
2023-05-05T03:51:17.107Z,99900.34
2023-05-05T03:54:18.986Z,99909.34
2023-05-05T03:57:20.732Z,99920.50
2023-05-05T04:00:22.507Z,99927.56
2023-05-05T04:03:24.404Z,99933.22
2023-05-05T04:06:26.412Z,99930.53
2023-05-05T04:09:28.447Z,99930.91
2023-05-05T04:12:30.638Z,99933.09
2023-05-05T04:15:32.351Z,99946.88
2023-05-05T04:18:34.037Z,99941.63
2023-05-05T04:21:35.843Z,99939.00
2023-05-05T04:24:37.883Z,99944.78
2023-05-05T04:27:39.609Z,99949.81
2023-05-05T04:30:42.086Z,99937.91
2023-05-05T04:33:44.299Z,99949.38
2023-05-05T04:36:46.742Z,99943.03
2023-05-05T04:39:48.916Z,99945.41
2023-05-05T04:42:50.585Z,99950.84
2023-05-05T04:45:55.275Z,99946.03
2023-05-05T04:49:00.203Z,99956.00
2023-05-05T04:52:02.546Z,99957.59
2023-05-05T04:55:04.528Z,99959.06
2023-05-05T04:58:06.141Z,99962.47
2023-05-05T05:01:07.854Z,99983.69
2023-05-05T05:04:09.576Z,99994.88
2023-05-05T05:07:11.398Z,100004.13
2023-05-05T05:10:13.197Z,99999.72
2023-05-05T05:13:14.865Z,100002.91
2023-05-05T05:16:16.667Z,100003.06
2023-05-05T05:19:18.387Z,100002.06
2023-05-05T05:22:20.702Z,99998.06
2023-05-05T05:25:22.452Z,100000.03
2023-05-05T05:28:24.281Z,100011.72
2023-05-05T05:31:31.146Z,100006.66
2023-05-05T05:34:33.076Z,99990.81
2023-05-05T05:37:35.079Z,100004.25
2023-05-05T05:40:37.903Z,100007.78
2023-05-05T05:43:42.514Z,100005.31
2023-05-05T05:46:44.283Z,100002.03
2023-05-05T05:49:46.342Z,100002.16
2023-05-05T05:52:48.021Z,100002.19
2023-05-05T05:55:50.243Z,100009.31
2023-05-05T05:58:51.956Z,100000.50
2023-05-05T06:01:54.483Z,99997.97
2023-05-05T06:04:56.204Z,99992.94
2023-05-05T06:07:57.905Z,99988.25
2023-05-05T06:11:01.367Z,99989.09
2023-05-05T06:14:03.090Z,99990.41
2023-05-05T06:17:04.903Z,99979.81
2023-05-05T06:20:08.456Z,99954.25
2023-05-05T06:23:10.351Z,99977.03
2023-05-05T06:26:16.329Z,99968.94
2023-05-05T06:29:17.974Z,99977.78
2023-05-05T06:32:19.611Z,99989.34
2023-05-05T06:35:21.389Z,99986.44
2023-05-05T06:38:22.983Z,99980.56
2023-05-05T06:41:24.666Z,99979.47
2023-05-05T06:44:26.306Z,99961.41
2023-05-05T06:47:28.170Z,99969.41
2023-05-05T06:50:29.876Z,99966.78
2023-05-05T06:53:31.521Z,99956.94
2023-05-05T06:56:33.159Z,99979.22
2023-05-05T06:59:34.777Z,99984.13
2023-05-05T07:02:36.457Z,99997.81
2023-05-05T07:05:38.342Z,99995.91
2023-05-05T07:08:40.028Z,99995.16
2023-05-05T07:11:41.705Z,100006.50
2023-05-05T07:14:43.362Z,99998.16
2023-05-05T07:17:45.045Z,99990.97
2023-05-05T07:20:46.709Z,99990.16
2023-05-05T07:23:48.357Z,99988.25
2023-05-05T07:26:50.003Z,99995.78
2023-05-05T07:29:51.696Z,99996.47
2023-05-05T07:32:53.583Z,99993.03
2023-05-05T07:35:55.272Z,99974.06
2023-05-05T07:38:56.917Z,99983.44
2023-05-05T07:41:58.619Z,99970.47
2023-05-05T07:45:00.325Z,99966.22
2023-05-05T07:48:02.025Z,99966.56
2023-05-05T07:51:03.740Z,99970.66
2023-05-05T07:54:05.422Z,99970.66
2023-05-05T07:57:07.091Z,99967.56
2023-05-05T08:00:09.570Z,99973.81
2023-05-05T08:03:14.437Z,99973.41
2023-05-05T08:06:16.151Z,99971.03
2023-05-05T08:09:18.071Z,99973.16
2023-05-05T08:12:19.685Z,99971.53
2023-05-05T08:15:21.341Z,99968.50
2023-05-05T08:18:22.980Z,99954.44
2023-05-05T08:21:24.658Z,99968.00
2023-05-05T08:24:26.672Z,99966.31
2023-05-05T08:27:28.319Z,99953.31
2023-05-05T08:30:30.052Z,99939.94
2023-05-05T08:33:31.720Z,99949.63
2023-05-05T08:36:33.448Z,99933.56
2023-05-05T08:39:35.066Z,99938.38
2023-05-05T08:42:38.543Z,99932.22
2023-05-05T08:45:41.051Z,99950.56
2023-05-05T08:48:43.299Z,99939.19
2023-05-05T08:51:45.028Z,99940.44
2023-05-05T08:54:50.492Z,99942.22
2023-05-05T08:57:56.188Z,99943.16
2023-05-05T09:00:57.806Z,99934.53
2023-05-05T09:03:59.516Z,99947.25
2023-05-05T09:07:01.164Z,99920.72
2023-05-05T09:10:06.359Z,99924.91
2023-05-05T09:13:07.986Z,99892.25
2023-05-05T09:16:09.718Z,99906.13
2023-05-05T09:19:11.392Z,99903.38
2023-05-05T09:22:13.058Z,99888.16
2023-05-05T09:25:15.809Z,99888.09
2023-05-05T09:28:17.713Z,99881.03
2023-05-05T09:31:19.422Z,99873.50
2023-05-05T09:34:21.109Z,99855.25
2023-05-05T09:37:29.658Z,99888.53
2023-05-05T09:40:32.103Z,99863.00
2023-05-05T09:43:59.914Z,99887.41
2023-05-05T09:47:01.561Z,99894.69
2023-05-05T09:50:03.462Z,99878.38
2023-05-05T09:53:05.110Z,99888.28
2023-05-05T09:56:07.239Z,99882.66
2023-05-05T09:59:09.623Z,99888.91
2023-05-05T10:02:12.317Z,99877.69
2023-05-05T10:05:15.346Z,99864.59
2023-05-05T10:08:17.804Z,99855.09
2023-05-05T10:11:19.445Z,99862.22
2023-05-05T10:14:21.081Z,99860.56
2023-05-05T10:17:23.272Z,99854.75
2023-05-05T10:20:24.845Z,99871.53
2023-05-05T10:23:44.538Z,99882.00
2023-05-05T10:26:46.188Z,99844.31
2023-05-05T10:30:07.312Z,99841.31
2023-05-05T10:33:30.768Z,99831.84
2023-05-05T10:36:33.083Z,99852.47
2023-05-05T10:39:35.956Z,99840.84
2023-05-05T10:42:40.687Z,99845.06
2023-05-05T10:45:42.475Z,99842.50
2023-05-05T10:48:51.388Z,99836.53
2023-05-05T10:52:05.394Z,99835.88
2023-05-05T10:55:17.739Z,99810.44
2023-05-05T10:58:46.996Z,99816.97
2023-05-05T11:01:53.181Z,99809.66
2023-05-05T11:05:09.986Z,99803.84
2023-05-05T11:08:26.647Z,99797.41
2023-05-05T11:12:08.383Z,99796.00
2023-05-05T11:15:28.280Z,99788.34
2023-05-05T11:18:42.282Z,99780.06
2023-05-05T11:22:00.001Z,99756.84
2023-05-05T11:25:01.685Z,99770.31
2023-05-05T11:28:13.787Z,99780.94
2023-05-05T11:31:16.055Z,99774.66
2023-05-05T11:34:24.756Z,99775.03
2023-05-05T11:37:27.600Z,99769.69
2023-05-05T11:40:30.435Z,99759.09
2023-05-05T11:43:32.061Z,99762.47
2023-05-05T11:46:33.733Z,99756.63
2023-05-05T11:49:35.338Z,99747.91
2023-05-05T11:52:36.960Z,99751.25
2023-05-05T11:55:38.690Z,99749.03
2023-05-05T11:58:43.187Z,99750.75
2023-05-05T12:01:44.869Z,99741.41
2023-05-05T12:04:46.759Z,99732.78
2023-05-05T12:07:48.431Z,99717.28
2023-05-05T12:10:50.068Z,99733.44
2023-05-05T12:14:07.022Z,99707.50
2023-05-05T12:17:08.672Z,99724.94
2023-05-05T12:20:11.282Z,99727.00
2023-05-05T12:23:13.181Z,99722.50
2023-05-05T12:26:28.046Z,99712.63
2023-05-05T12:29:29.816Z,99691.09
2023-05-05T12:32:31.478Z,99693.16
2023-05-05T12:35:33.172Z,99708.94
2023-05-05T12:38:35.591Z,99704.56
2023-05-05T12:41:37.198Z,99681.66
2023-05-05T12:44:38.919Z,99689.13
2023-05-05T12:47:40.580Z,99688.69
2023-05-05T12:50:42.306Z,99672.75
2023-05-05T12:53:44.789Z,99676.94
2023-05-05T12:56:47.092Z,99630.84
2023-05-05T12:59:48.924Z,99638.44
2023-05-05T13:02:50.629Z,99644.78
2023-05-05T13:05:52.383Z,99634.28
2023-05-05T13:08:54.029Z,99661.91
2023-05-05T13:11:55.691Z,99622.88
2023-05-05T13:14:57.332Z,99650.19
2023-05-05T13:18:02.155Z,99622.41
2023-05-05T13:21:03.835Z,99596.75
2023-05-05T13:24:21.389Z,99609.09
2023-05-05T13:27:27.492Z,99596.44
2023-05-05T13:30:29.137Z,99590.47
2023-05-05T13:33:33.383Z,99600.38
2023-05-05T13:36:35.181Z,99589.63
2023-05-05T13:39:36.789Z,99585.31
2023-05-05T13:42:38.419Z,99583.16
2023-05-05T13:45:41.766Z,99577.59
2023-05-05T13:48:43.679Z,99564.38
2023-05-05T13:51:45.464Z,99560.44
2023-05-05T13:54:47.108Z,99550.09
2023-05-05T13:57:48.747Z,99546.22
2023-05-05T14:00:50.437Z,99539.56
2023-05-05T14:03:52.107Z,99532.88
2023-05-05T14:06:53.797Z,99539.16
2023-05-05T14:09:55.460Z,99516.91
2023-05-05T14:12:57.137Z,99523.63
2023-05-05T14:15:58.858Z,99530.50
2023-05-05T14:19:00.753Z,99525.63
2023-05-05T14:22:02.437Z,99517.88
2023-05-05T14:25:04.349Z,99515.94
2023-05-05T14:28:06.085Z,99502.56
2023-05-05T14:31:07.709Z,99495.50
2023-05-05T14:34:09.370Z,99503.19
2023-05-05T14:37:11.017Z,99465.03
2023-05-05T14:40:12.674Z,99479.03
2023-05-05T14:43:14.335Z,99494.34
2023-05-05T14:46:16.050Z,99482.66
2023-05-05T14:49:17.689Z,99472.91
2023-05-05T14:52:21.925Z,99462.50
2023-05-05T14:55:23.532Z,99473.03
2023-05-05T14:58:25.146Z,99463.53
2023-05-05T15:01:26.824Z,99456.84
2023-05-05T15:04:28.488Z,99458.13
2023-05-05T15:07:30.156Z,99470.72
2023-05-05T15:10:31.780Z,99469.06
2023-05-05T15:13:35.186Z,99460.28
2023-05-05T15:16:36.909Z,99449.44
2023-05-05T15:19:38.588Z,99445.22
2023-05-05T15:22:40.370Z,99455.09
2023-05-05T15:25:41.992Z,99454.09
2023-05-05T15:28:43.662Z,99465.56
2023-05-05T15:31:45.308Z,99466.31
2023-05-05T15:34:48.389Z,99468.63
2023-05-05T15:37:53.387Z,99462.38
2023-05-05T15:40:55.099Z,99452.94
2023-05-05T15:43:56.750Z,99456.53
2023-05-05T15:46:58.378Z,99455.03
2023-05-05T15:50:00.085Z,99456.66
2023-05-05T15:53:01.814Z,99444.34
2023-05-05T15:56:03.437Z,99461.88
2023-05-05T15:59:05.128Z,99468.13
2023-05-05T16:02:06.841Z,99460.66
2023-05-05T16:05:09.214Z,99465.53
2023-05-05T16:08:11.087Z,99453.19
2023-05-05T16:11:12.919Z,99455.06
2023-05-05T16:14:14.587Z,99449.72
2023-05-05T16:17:16.240Z,99446.50
2023-05-05T16:20:17.804Z,99451.69
2023-05-05T16:23:19.456Z,99430.59
2023-05-05T16:26:21.093Z,99449.94
2023-05-05T16:29:22.748Z,99447.91
2023-05-05T16:32:24.419Z,99439.06
2023-05-05T16:35:26.079Z,99457.84
2023-05-05T16:38:27.739Z,99451.88
2023-05-05T16:41:29.347Z,99436.00
2023-05-05T16:44:30.969Z,99442.59
2023-05-05T16:47:32.450Z,99443.63
2023-05-05T16:50:34.100Z,99450.25
2023-05-05T16:53:35.522Z,99454.09
2023-05-05T16:56:36.932Z,99444.47
2023-05-05T16:59:38.417Z,99436.88
2023-05-05T17:02:40.145Z,99454.31
2023-05-05T17:05:42.283Z,99435.97
2023-05-05T17:08:44.000Z,99441.91
2023-05-05T17:11:45.644Z,99446.19
2023-05-05T17:14:47.289Z,99448.94
2023-05-05T17:17:49.264Z,99454.16
2023-05-05T17:20:50.939Z,99457.09
2023-05-05T17:23:52.586Z,99459.13
2023-05-05T17:26:54.241Z,99458.16
2023-05-05T17:29:55.836Z,99470.44
2023-05-05T17:32:57.559Z,99472.84
2023-05-05T17:35:59.264Z,99462.34
2023-05-05T17:39:00.924Z,99490.81
2023-05-05T17:42:02.590Z,99488.28
2023-05-05T17:45:04.607Z,99494.22
2023-05-05T17:48:06.406Z,99493.44
2023-05-05T17:51:08.064Z,99491.84
2023-05-05T17:54:09.785Z,99501.25
2023-05-05T17:57:11.646Z,99518.53
2023-05-05T18:00:13.751Z,99516.72
2023-05-05T18:03:15.590Z,99526.38
2023-05-05T18:06:17.349Z,99533.56
2023-05-05T18:09:19.024Z,99529.19
2023-05-05T18:12:20.683Z,99539.59
2023-05-05T18:15:22.414Z,99543.91
2023-05-05T18:18:24.102Z,99553.28
2023-05-05T18:21:25.745Z,99552.69
2023-05-05T18:24:27.433Z,99565.91
2023-05-05T18:27:29.056Z,99565.94
2023-05-05T18:30:30.693Z,99561.69
2023-05-05T18:33:32.319Z,99572.84
2023-05-05T18:36:33.938Z,99578.00
2023-05-05T18:39:35.577Z,99583.22
2023-05-05T18:42:37.227Z,99582.94
2023-05-05T18:45:38.824Z,99586.94
2023-05-05T18:48:40.478Z,99590.09
2023-05-05T18:51:42.110Z,99596.34
2023-05-05T18:54:43.756Z,99586.97
2023-05-05T18:57:45.416Z,99594.06
2023-05-05T19:00:47.083Z,99600.03
2023-05-05T19:03:48.758Z,99592.53
2023-05-05T19:06:52.439Z,99602.47
2023-05-05T19:09:54.301Z,99594.53
2023-05-05T19:12:56.038Z,99599.69
2023-05-05T19:15:57.947Z,99610.53
2023-05-05T19:18:59.718Z,99614.34
2023-05-05T19:22:02.966Z,99617.72
2023-05-05T19:25:05.598Z,99589.44
2023-05-05T19:28:07.192Z,99615.91
2023-05-05T19:31:08.839Z,99604.28
2023-05-05T19:34:10.551Z,99612.88
2023-05-05T19:37:12.454Z,99601.91
2023-05-05T19:40:14.127Z,99605.03
2023-05-05T19:43:15.869Z,99618.50
2023-05-05T19:46:18.908Z,99621.00
2023-05-05T19:49:20.657Z,99609.19
2023-05-05T19:52:22.284Z,99614.22
2023-05-05T19:55:23.952Z,99614.13
2023-05-05T19:58:25.727Z,99617.28
2023-05-05T20:01:28.030Z,99608.13
2023-05-05T20:04:29.709Z,99613.91
2023-05-05T20:07:31.360Z,99603.53
2023-05-05T20:10:33.013Z,99608.34
2023-05-05T20:13:34.682Z,99596.59
2023-05-05T20:16:36.473Z,99586.88
2023-05-05T20:19:38.339Z,99611.53
2023-05-05T20:22:40.703Z,99596.69
2023-05-05T20:25:42.604Z,99591.66
2023-05-05T20:28:45.195Z,99604.16
2023-05-05T20:31:47.195Z,99595.94
2023-05-05T20:34:48.892Z,99596.41
2023-05-05T20:37:50.550Z,99598.22
2023-05-05T20:40:52.223Z,99603.72
2023-05-05T20:43:53.954Z,99604.28
2023-05-05T20:46:55.648Z,99596.88
2023-05-05T20:49:57.316Z,99599.66
2023-05-05T20:52:58.970Z,99596.31
2023-05-05T20:56:00.757Z,99593.00
2023-05-05T20:59:02.402Z,99596.16
2023-05-05T21:02:04.189Z,99592.16
2023-05-05T21:05:06.325Z,99585.88
2023-05-05T21:08:08.003Z,99595.44
2023-05-05T21:11:09.879Z,99592.88
2023-05-05T21:14:11.691Z,99601.91
2023-05-05T21:17:13.391Z,99597.03
2023-05-05T21:20:15.065Z,99592.19
2023-05-05T21:23:16.707Z,99598.03
2023-05-05T21:26:18.355Z,99594.72
2023-05-05T21:29:19.977Z,99595.28
2023-05-05T21:32:21.691Z,99587.88
2023-05-05T21:35:23.382Z,99581.66
2023-05-05T21:38:25.023Z,99595.94
2023-05-05T21:41:26.668Z,99592.63
2023-05-05T21:44:28.357Z,99593.09
2023-05-05T21:47:30.088Z,99591.69
2023-05-05T21:50:31.745Z,99596.78
2023-05-05T21:53:33.358Z,99594.25
2023-05-05T21:56:35.265Z,99589.91
2023-05-05T21:59:36.942Z,99584.06
2023-05-05T22:02:38.658Z,99595.63
2023-05-05T22:05:40.379Z,99593.13
2023-05-05T22:08:42.000Z,99598.47
2023-05-05T22:11:43.609Z,99599.28
2023-05-05T22:14:45.265Z,99583.81
2023-05-05T22:17:46.926Z,99593.69
2023-05-05T22:20:48.636Z,99581.03
2023-05-05T22:23:50.251Z,99586.97
2023-05-05T22:26:51.903Z,99578.72
2023-05-05T22:29:53.520Z,99587.13
2023-05-05T22:32:55.296Z,99570.97
2023-05-05T22:35:56.983Z,99573.16
2023-05-05T22:38:58.719Z,99564.81
2023-05-05T22:42:00.360Z,99559.88
2023-05-05T22:45:02.040Z,99564.66
2023-05-05T22:48:03.832Z,99554.59
2023-05-05T22:51:05.770Z,99560.19
2023-05-05T22:54:07.813Z,99555.41
2023-05-05T22:57:09.534Z,99554.66
2023-05-05T23:00:11.400Z,99543.81
2023-05-05T23:03:13.020Z,99542.31
2023-05-05T23:06:14.682Z,99553.22
2023-05-05T23:09:16.327Z,99539.06
2023-05-05T23:12:17.914Z,99549.91
2023-05-05T23:15:19.621Z,99532.31
2023-05-05T23:18:21.233Z,99538.38
2023-05-05T23:21:22.892Z,99555.34
2023-05-05T23:24:24.563Z,99552.00
2023-05-05T23:27:26.180Z,99550.56
2023-05-05T23:30:27.904Z,99549.13
2023-05-05T23:33:29.595Z,99526.69
2023-05-05T23:36:31.239Z,99525.59
2023-05-05T23:39:36.046Z,99539.91
2023-05-05T23:42:37.682Z,99540.03
2023-05-05T23:45:39.338Z,99537.09
2023-05-05T23:48:40.976Z,99538.72
2023-05-05T23:51:42.550Z,99527.13
2023-05-05T23:54:44.770Z,99536.53
2023-05-05T23:57:46.385Z,99527.13
